createdAt,value
2024-04-30T00:04:17.474Z,11.20
2024-04-30T00:09:18.282Z,11.41
2024-04-30T00:14:19.048Z,11.38
2024-04-30T00:19:19.895Z,11.10
2024-04-30T00:24:20.715Z,11.16
2024-04-30T00:29:21.457Z,11.26
2024-04-30T00:34:22.214Z,11.27
2024-04-30T00:39:23.004Z,11.31
2024-04-30T00:44:23.750Z,11.24
2024-04-30T00:49:25.240Z,11.13
2024-04-30T00:54:26.156Z,10.95
2024-04-30T00:59:26.949Z,10.92
2024-04-30T01:04:28.372Z,11.02
2024-04-30T01:09:29.114Z,11.24
2024-04-30T01:14:30.320Z,11.26
2024-04-30T01:19:31.081Z,11.31
2024-04-30T01:24:31.843Z,11.37
2024-04-30T01:29:32.656Z,11.41
2024-04-30T01:34:36.359Z,11.50
2024-04-30T01:39:37.092Z,11.75
2024-04-30T01:44:37.905Z,11.90
2024-04-30T01:49:38.704Z,11.91
2024-04-30T01:54:39.458Z,11.90
2024-04-30T01:59:43.476Z,12.13
2024-04-30T02:04:49.394Z,12.09
2024-04-30T02:09:54.096Z,12.15
2024-04-30T02:14:55.025Z,12.24
2024-04-30T02:19:55.838Z,12.46
2024-04-30T02:24:56.594Z,12.63
2024-04-30T02:29:57.334Z,12.73
2024-04-30T02:34:58.077Z,12.77
2024-04-30T02:39:58.883Z,12.70
2024-04-30T02:44:59.716Z,12.92
2024-04-30T02:50:00.502Z,12.88
2024-04-30T02:55:01.392Z,12.92
2024-04-30T03:00:02.794Z,12.82
2024-04-30T03:05:03.898Z,12.82
2024-04-30T03:10:05.277Z,12.77
2024-04-30T03:15:07.010Z,12.83
2024-04-30T03:20:08.073Z,12.92
2024-04-30T03:25:08.853Z,12.75
2024-04-30T03:30:09.794Z,12.70
2024-04-30T03:35:10.567Z,12.59
2024-04-30T03:40:11.327Z,12.52
2024-04-30T03:45:12.169Z,12.60
2024-04-30T03:50:12.943Z,12.47
2024-04-30T03:55:13.700Z,12.49
2024-04-30T04:00:14.523Z,12.59
2024-04-30T04:05:15.264Z,12.65
2024-04-30T04:10:16.114Z,12.79
2024-04-30T04:15:17.069Z,12.83
2024-04-30T04:20:17.844Z,12.74
2024-04-30T04:25:18.647Z,12.74
2024-04-30T04:30:19.461Z,12.62
2024-04-30T04:35:20.212Z,12.55
2024-04-30T04:40:21.024Z,12.55
2024-04-30T04:45:21.807Z,12.60
2024-04-30T04:50:22.595Z,12.49
2024-04-30T04:55:23.401Z,12.57
2024-04-30T05:00:24.564Z,12.60
2024-04-30T05:05:25.310Z,12.80
2024-04-30T05:10:26.080Z,12.88
2024-04-30T05:15:27.003Z,12.93
2024-04-30T05:20:27.810Z,13.01
2024-04-30T05:25:28.656Z,13.16
2024-04-30T05:30:29.466Z,12.92
2024-04-30T05:35:30.235Z,12.80
2024-04-30T05:40:31.010Z,12.77
2024-04-30T05:45:31.873Z,12.85
2024-04-30T05:50:32.697Z,13.01
2024-04-30T05:55:33.505Z,13.19
2024-04-30T06:00:34.336Z,13.33
2024-04-30T06:05:35.224Z,13.91
2024-04-30T06:10:36.075Z,14.02
2024-04-30T06:15:36.994Z,14.40
2024-04-30T06:20:39.288Z,14.70
2024-04-30T06:25:40.234Z,14.92
2024-04-30T06:30:41.240Z,15.21
2024-04-30T06:35:42.021Z,15.41
2024-04-30T06:40:42.884Z,15.63
2024-04-30T06:45:43.644Z,15.47
2024-04-30T06:50:44.416Z,15.67
2024-04-30T06:55:45.209Z,15.88
2024-04-30T07:00:46.039Z,16.01
2024-04-30T07:05:47.076Z,16.01
2024-04-30T07:10:47.989Z,15.95
2024-04-30T07:15:49.004Z,16.04
2024-04-30T07:20:49.770Z,16.22
2024-04-30T07:25:50.558Z,16.22
2024-04-30T07:30:51.314Z,16.33
2024-04-30T07:35:52.066Z,16.71
2024-04-30T07:40:52.951Z,16.80
2024-04-30T07:45:53.700Z,16.92
2024-04-30T07:50:54.491Z,17.20
2024-04-30T07:55:55.217Z,17.26
2024-04-30T08:00:56.106Z,17.63
2024-04-30T08:06:01.276Z,18.06
2024-04-30T08:11:07.949Z,18.03
2024-04-30T08:16:11.667Z,18.05
2024-04-30T08:21:12.529Z,18.30
2024-04-30T08:26:13.300Z,18.41
2024-04-30T08:31:14.190Z,18.51
2024-04-30T08:36:15.012Z,18.78
2024-04-30T08:41:15.814Z,18.90
2024-04-30T08:46:16.868Z,18.41
2024-04-30T08:51:17.706Z,18.51
2024-04-30T08:56:18.715Z,18.72
2024-04-30T09:01:19.839Z,18.81
2024-04-30T09:06:20.717Z,18.97
2024-04-30T09:11:21.613Z,19.22
2024-04-30T09:16:22.644Z,19.25
2024-04-30T09:21:27.548Z,19.46
2024-04-30T09:26:28.326Z,19.68
2024-04-30T09:31:38.851Z,19.42
2024-04-30T09:36:40.435Z,19.74
2024-04-30T09:41:43.186Z,19.67
2024-04-30T09:46:44.989Z,19.78
2024-04-30T09:51:49.590Z,20.27
2024-04-30T09:56:52.682Z,20.06
2024-04-30T10:01:57.442Z,20.58
2024-04-30T10:06:58.541Z,20.74
2024-04-30T10:11:59.335Z,21.16
2024-04-30T10:17:00.820Z,21.50
2024-04-30T10:22:12.750Z,21.50
2024-04-30T10:27:24.465Z,21.46
2024-04-30T10:32:25.234Z,21.01
2024-04-30T10:37:30.209Z,21.45
2024-04-30T10:42:37.387Z,21.84
2024-04-30T10:47:38.237Z,22.02
2024-04-30T10:52:39.109Z,21.76
2024-04-30T10:57:42.434Z,21.74
2024-04-30T11:02:46.530Z,21.54
2024-04-30T11:07:58.686Z,22.11
2024-04-30T11:13:03.050Z,22.37
2024-04-30T11:18:04.316Z,22.90
2024-04-30T11:23:05.141Z,22.89
2024-04-30T11:28:06.056Z,23.35
2024-04-30T11:33:07.019Z,23.20
2024-04-30T11:38:07.954Z,23.40
2024-04-30T11:43:08.792Z,23.22
2024-04-30T11:48:09.759Z,23.43
2024-04-30T11:53:10.709Z,23.23
2024-04-30T11:58:11.944Z,23.36
2024-04-30T12:03:13.120Z,23.29
2024-04-30T12:08:13.948Z,22.95
2024-04-30T12:13:14.916Z,22.93
2024-04-30T12:18:16.095Z,22.74
2024-04-30T12:23:18.738Z,23.35
2024-04-30T12:28:20.362Z,23.42
2024-04-30T12:33:21.858Z,24.03
2024-04-30T12:38:23.580Z,23.71
2024-04-30T12:43:24.386Z,24.16
2024-04-30T12:48:25.714Z,24.10
2024-04-30T12:53:26.601Z,23.83
2024-04-30T12:58:27.442Z,24.19
2024-04-30T13:03:29.239Z,24.48
2024-04-30T13:08:30.058Z,24.01
2024-04-30T13:13:30.916Z,24.26
2024-04-30T13:18:31.791Z,24.08
2024-04-30T13:23:36.252Z,24.06
2024-04-30T13:28:37.077Z,24.50
2024-04-30T13:33:37.916Z,24.58
2024-04-30T13:38:38.899Z,24.51
2024-04-30T13:43:39.886Z,24.43
2024-04-30T13:48:40.732Z,24.68
2024-04-30T13:53:41.583Z,23.84
2024-04-30T13:58:42.415Z,24.17
2024-04-30T14:03:43.392Z,23.66
2024-04-30T14:08:44.188Z,23.71
2024-04-30T14:13:45.266Z,23.54
2024-04-30T14:18:46.526Z,23.82
2024-04-30T14:23:47.401Z,24.07
2024-04-30T14:28:48.218Z,23.78
2024-04-30T14:33:49.062Z,23.26
2024-04-30T14:38:49.847Z,23.23
2024-04-30T14:43:50.629Z,23.23
2024-04-30T14:48:51.480Z,23.53
2024-04-30T14:53:52.272Z,23.74
2024-04-30T14:58:53.101Z,23.38
2024-04-30T15:03:55.982Z,23.40
2024-04-30T15:08:56.838Z,23.44
2024-04-30T15:13:57.591Z,23.65
2024-04-30T15:18:58.505Z,23.38
2024-04-30T15:23:59.282Z,23.20
2024-04-30T15:29:00.037Z,23.13
2024-04-30T15:34:01.007Z,23.18
2024-04-30T15:39:01.838Z,23.07
2024-04-30T15:44:02.795Z,23.13
2024-04-30T15:49:03.592Z,23.14
2024-04-30T15:54:04.490Z,23.01
2024-04-30T15:59:07.643Z,23.09
2024-04-30T16:04:08.576Z,22.94
2024-04-30T16:09:09.383Z,22.89
2024-04-30T16:14:10.157Z,22.92
2024-04-30T16:19:12.208Z,23.04
2024-04-30T16:24:13.741Z,22.84
2024-04-30T16:29:14.516Z,22.86
2024-04-30T16:34:15.280Z,22.75
2024-04-30T16:39:16.117Z,22.81
2024-04-30T16:44:16.966Z,22.48
2024-04-30T16:49:17.919Z,22.31
2024-04-30T16:54:18.838Z,22.15
2024-04-30T16:59:19.634Z,22.00
2024-04-30T17:04:21.907Z,22.05
2024-04-30T17:09:23.016Z,22.05
2024-04-30T17:14:23.829Z,22.07
2024-04-30T17:19:24.731Z,22.13
2024-04-30T17:24:25.516Z,22.03
2024-04-30T17:29:26.265Z,21.94
2024-04-30T17:34:27.006Z,21.96
2024-04-30T17:39:27.804Z,21.98
2024-04-30T17:44:28.617Z,21.76
2024-04-30T17:49:29.472Z,21.77
2024-04-30T17:54:30.262Z,21.56
2024-04-30T17:59:31.032Z,21.47
2024-04-30T18:04:31.842Z,21.45
2024-04-30T18:09:32.807Z,21.25
2024-04-30T18:14:33.679Z,21.05
2024-04-30T18:19:34.581Z,20.90
2024-04-30T18:24:35.444Z,20.71
2024-04-30T18:29:36.202Z,20.44
2024-04-30T18:34:37.161Z,20.09
2024-04-30T18:39:41.063Z,19.60
2024-04-30T18:44:41.953Z,19.19
2024-04-30T18:49:43.097Z,18.96
2024-04-30T18:54:44.141Z,18.85
2024-04-30T18:59:44.884Z,18.53
2024-04-30T19:04:45.961Z,18.35
2024-04-30T19:09:46.848Z,18.09
2024-04-30T19:14:48.436Z,18.09
2024-04-30T19:19:50.913Z,17.93
2024-04-30T19:24:51.861Z,17.72
2024-04-30T19:29:52.621Z,17.51
2024-04-30T19:34:53.381Z,17.42
2024-04-30T19:39:54.333Z,17.34
2024-04-30T19:44:55.219Z,17.18
2024-04-30T19:49:55.981Z,17.24
2024-04-30T19:54:58.218Z,17.06
2024-04-30T19:59:58.995Z,17.00
2024-04-30T20:04:59.858Z,17.09
2024-04-30T20:10:00.671Z,17.09
2024-04-30T20:15:01.493Z,16.98
2024-04-30T20:20:02.632Z,16.92
2024-04-30T20:25:03.909Z,16.91
2024-04-30T20:30:08.549Z,16.86
2024-04-30T20:35:11.096Z,16.95
2024-04-30T20:40:11.981Z,16.98
2024-04-30T20:45:12.883Z,16.91
2024-04-30T20:50:13.766Z,16.89
2024-04-30T20:55:14.581Z,16.85
2024-04-30T21:00:15.840Z,16.84
2024-04-30T21:05:16.603Z,16.87
2024-04-30T21:10:17.365Z,16.77
2024-04-30T21:15:18.182Z,16.72
2024-04-30T21:20:19.224Z,16.78
2024-04-30T21:25:19.970Z,16.72
2024-04-30T21:30:20.826Z,16.73
2024-04-30T21:35:21.553Z,16.87
2024-04-30T21:40:22.337Z,16.78
2024-04-30T21:45:23.139Z,16.94
2024-04-30T21:50:23.891Z,16.94
2024-04-30T21:55:24.648Z,16.79
2024-04-30T22:00:25.505Z,16.73
2024-04-30T22:05:26.401Z,16.78
2024-04-30T22:10:27.244Z,16.89
2024-04-30T22:15:28.018Z,16.92
2024-04-30T22:20:29.839Z,16.92
2024-04-30T22:25:30.675Z,16.75
2024-04-30T22:30:31.477Z,16.67
2024-04-30T22:35:32.244Z,16.73
2024-04-30T22:40:33.087Z,16.92
2024-04-30T22:45:33.863Z,16.83
2024-04-30T22:50:35.490Z,16.82
2024-04-30T22:55:36.254Z,16.92
2024-04-30T23:00:37.056Z,16.92
2024-04-30T23:05:37.852Z,16.89
2024-04-30T23:10:38.635Z,16.77
2024-04-30T23:15:39.428Z,16.66
2024-04-30T23:20:40.362Z,16.53
2024-04-30T23:25:41.639Z,16.24
2024-04-30T23:30:42.444Z,16.03
2024-04-30T23:35:43.210Z,15.80
2024-04-30T23:40:43.957Z,15.91
2024-04-30T23:45:44.818Z,15.79
2024-04-30T23:50:45.626Z,15.65
2024-04-30T23:55:46.372Z,15.51
